Time;durP1;ratioP1;P1;durP2;ratioP2;P2;SDS_P1;SDS_P2;PMS_P1;PMS_P2;Temp;Humidity;BMP_temperature;BMP_pressure;BME280_temperature;BME280_humidity;BME280_pressure;Samples;Min_cycle;Max_cycle;Signal;HPM_P1;HPM_P2
2021/03/18 00:00:55;;;;;;;;;;;12.70;28.60;;;;;;4948843;28;77441;-66
2021/03/18 00:03:24;;;;;;;;;;;12.70;28.70;;;;;;4950065;28;75302;-66
2021/03/18 00:05:49;;;;;;;;;;;12.70;28.80;;;;;;4949877;28;74625;-67
2021/03/18 00:08:16;;;;;;;;;;;12.70;29.00;;;;;;4949893;28;75408;-66
2021/03/18 00:10:42;;;;;;;;;;;12.60;28.70;;;;;;4949918;28;74955;-66
2021/03/18 00:13:08;;;;;;;;;;;12.60;29.20;;;;;;4950244;28;75013;-66
2021/03/18 00:15:34;;;;;;;;;;;12.60;29.00;;;;;;4949658;28;75615;-66
2021/03/18 00:18:00;;;;;;;;;;;12.60;29.10;;;;;;4949888;28;75426;-66
2021/03/18 00:20:26;;;;;;;;;;;12.60;29.20;;;;;;4949547;28;75145;-66
2021/03/18 00:22:51;;;;;;;;;;;12.60;29.40;;;;;;4950179;28;75654;-66
2021/03/18 00:25:17;;;;;;;;;;;12.50;29.30;;;;;;4948085;28;76372;-66
2021/03/18 00:27:44;;;;;;;;;;;12.50;29.60;;;;;;4948314;28;77525;-67
2021/03/18 00:30:10;;;;;;;;;;;12.50;29.50;;;;;;4950096;28;74411;-66
2021/03/18 00:32:37;;;;;;;;;;;12.50;29.30;;;;;;4947899;28;77329;-67
2021/03/18 00:35:04;;;;;;;;;;;12.50;29.60;;;;;;4948290;28;76015;-66
2021/03/18 00:37:29;;;;;;;;;;;12.40;29.90;;;;;;4947951;28;77866;-66
2021/03/18 00:39:56;;;;;;;;;;;12.40;29.70;;;;;;4949557;28;74938;-66
2021/03/18 00:42:22;;;;;;;;;;;12.40;30.00;;;;;;4947866;28;76501;-66
2021/03/18 00:44:48;;;;;;;;;;;12.30;29.90;;;;;;4949842;28;75068;-66
2021/03/18 00:47:13;;;;;;;;;;;12.30;30.50;;;;;;4949504;28;74740;-66
2021/03/18 00:49:39;;;;;;;;;;;12.30;30.40;;;;;;4950330;28;75107;-66
2021/03/18 00:52:05;;;;;;;;;;;12.30;30.30;;;;;;4952697;28;75415;-66
2021/03/18 00:54:30;;;;;;;;;;;12.20;30.30;;;;;;4952564;28;74537;-66
2021/03/18 00:56:56;;;;;;;;;;;12.20;30.70;;;;;;4952476;28;75206;-65
2021/03/18 00:59:22;;;;;;;;;;;12.20;30.40;;;;;;4950491;28;74461;-66
2021/03/18 01:01:49;;;;;;;;;;;12.20;30.70;;;;;;4949976;28;94716;-68
2021/03/18 01:04:14;;;;;;;;;;;12.20;30.90;;;;;;4952441;28;75466;-66
2021/03/18 01:06:40;;;;;;;;;;;12.20;31.20;;;;;;4952083;28;74938;-66
2021/03/18 01:09:07;;;;;;;;;;;12.10;31.10;;;;;;4952114;28;75017;-67
2021/03/18 01:11:36;;;;;;;;;;;12.10;31.10;;;;;;4952377;28;74432;-67
2021/03/18 01:14:09;;;;;;;;;;;12.00;31.40;;;;;;4952191;28;75157;-65
2021/03/18 01:16:39;;;;;;;;;;;12.00;31.50;;;;;;4952045;28;75425;-66
2021/03/18 01:19:06;;;;;;;;;;;12.00;31.60;;;;;;4952076;28;75247;-66
2021/03/18 01:21:34;;;;;;;;;;;11.90;32.00;;;;;;4952482;28;75401;-66
2021/03/18 01:24:00;;;;;;;;;;;11.90;32.00;;;;;;4951697;28;75463;-68
2021/03/18 01:26:26;;;;;;;;;;;11.90;32.00;;;;;;4952120;28;76292;-66
2021/03/18 01:28:52;;;;;;;;;;;11.80;32.10;;;;;;4951805;28;75074;-66
2021/03/18 01:31:17;;;;;;;;;;;11.80;32.30;;;;;;4952156;28;75385;-66
2021/03/18 01:33:43;;;;;;;;;;;11.70;32.20;;;;;;4951466;28;75174;-65
2021/03/18 01:36:12;;;;;;;;;;;11.70;32.20;;;;;;4950071;28;77327;-67
2021/03/18 01:38:38;;;;;;;;;;;11.70;33.00;;;;;;4951824;28;75277;-67
2021/03/18 01:41:03;;;;;;;;;;;11.70;32.20;;;;;;4951478;28;75359;-66
2021/03/18 01:43:29;;;;;;;;;;;11.70;32.70;;;;;;4951719;28;75282;-67
2021/03/18 01:45:55;;;;;;;;;;;11.60;32.90;;;;;;4951452;28;75299;-66
2021/03/18 01:48:21;;;;;;;;;;;11.70;32.70;;;;;;4952148;28;74470;-67
2021/03/18 01:50:47;;;;;;;;;;;11.70;33.10;;;;;;4950010;28;76522;-66
2021/03/18 01:53:12;;;;;;;;;;;11.70;32.80;;;;;;4951710;28;74921;-66
2021/03/18 01:55:39;;;;;;;;;;;11.70;33.00;;;;;;4949632;28;76535;-66
2021/03/18 01:58:06;;;;;;;;;;;11.70;33.20;;;;;;4951246;28;75475;-67
2021/03/18 02:00:32;;;;;;;;;;;11.70;33.70;;;;;;4951106;28;75198;-66
2021/03/18 02:02:58;;;;;;;;;;;11.70;33.50;;;;;;4950701;28;75220;-66
2021/03/18 02:05:25;;;;;;;;;;;11.70;33.60;;;;;;4951527;28;75206;-67
2021/03/18 02:07:52;;;;;;;;;;;11.60;34.00;;;;;;4951460;28;75783;-65
2021/03/18 02:10:19;;;;;;;;;;;11.60;33.90;;;;;;4949772;28;75746;-66
2021/03/18 02:12:45;;;;;;;;;;;11.60;33.70;;;;;;4951227;28;75123;-67
2021/03/18 02:15:11;;;;;;;;;;;11.60;34.10;;;;;;4951244;28;74686;-66
2021/03/18 02:17:43;;;;;;;;;;;11.60;34.00;;;;;;4949703;28;77872;-67
2021/03/18 02:20:27;;;;;;;;;;;11.50;34.00;;;;;;4951056;28;74560;-67
2021/03/18 02:22:54;;;;;;;;;;;11.50;34.30;;;;;;4949632;28;77085;-67
2021/03/18 02:25:28;;;;;;;;;;;11.40;34.10;;;;;;4950073;28;74467;-67
2021/03/18 02:28:12;;;;;;;;;;;11.40;34.60;;;;;;4951079;28;75233;-67
2021/03/18 02:30:48;;;;;;;;;;;11.40;34.70;;;;;;4951572;28;74762;-66
2021/03/18 02:33:32;;;;;;;;;;;11.40;35.20;;;;;;4950418;28;75198;-68
2021/03/18 02:36:01;;;;;;;;;;;11.30;34.90;;;;;;4949380;28;77260;-67
2021/03/18 02:38:35;;;;;;;;;;;11.20;34.90;;;;;;4950869;28;75108;-66
2021/03/18 02:41:05;;;;;;;;;;;11.20;35.30;;;;;;4951062;28;75191;-66
2021/03/18 02:43:40;;;;;;;;;;;11.20;35.60;;;;;;4949125;28;77878;-66
2021/03/18 02:46:06;;;;;;;;;;;11.10;36.00;;;;;;4950934;28;75096;-67
2021/03/18 02:48:34;;;;;;;;;;;11.00;35.80;;;;;;4950717;28;75587;-67
2021/03/18 02:51:00;;;;;;;;;;;11.00;36.10;;;;;;4951016;28;75047;-66
2021/03/18 02:53:27;;;;;;;;;;;10.90;35.90;;;;;;4950697;28;74447;-67
2021/03/18 02:55:53;;;;;;;;;;;10.90;36.40;;;;;;4950541;28;74907;-65
2021/03/18 02:58:23;;;;;;;;;;;10.80;36.40;;;;;;4949210;28;77675;-67
2021/03/18 03:00:50;;;;;;;;;;;10.70;36.80;;;;;;4948818;28;77291;-66
2021/03/18 03:03:17;;;;;;;;;;;10.70;36.70;;;;;;4951178;28;74645;-66
2021/03/18 03:05:45;;;;;;;;;;;10.50;37.30;;;;;;4949033;28;75718;-67
2021/03/18 03:08:11;;;;;;;;;;;10.50;37.10;;;;;;4949139;28;77967;-67
2021/03/18 03:10:37;;;;;;;;;;;10.50;37.30;;;;;;4950773;28;75086;-66
2021/03/18 03:13:03;;;;;;;;;;;10.40;37.50;;;;;;4949967;28;74998;-66
2021/03/18 03:15:29;;;;;;;;;;;10.40;37.50;;;;;;4949064;28;78133;-66
2021/03/18 03:17:58;;;;;;;;;;;10.40;37.90;;;;;;4950532;28;75149;-66
2021/03/18 03:20:24;;;;;;;;;;;10.40;37.50;;;;;;4966765;27;75993;-66
2021/03/18 03:22:50;;;;;;;;;;;10.30;37.90;;;;;;4950353;28;75221;-66
2021/03/18 03:25:16;;;;;;;;;;;10.30;37.70;;;;;;4948719;28;75799;-66
2021/03/18 03:27:42;;;;;;;;;;;10.30;38.70;;;;;;4950190;28;75015;-65
2021/03/18 03:30:09;;;;;;;;;;;10.20;38.00;;;;;;4950319;28;75402;-66
2021/03/18 03:32:35;;;;;;;;;;;10.30;38.40;;;;;;4948895;28;76269;-66
2021/03/18 03:35:00;;;;;;;;;;;10.20;38.60;;;;;;4950198;28;74560;-67
2021/03/18 03:37:26;;;;;;;;;;;10.30;37.90;;;;;;4950650;28;75150;-67
2021/03/18 03:39:52;;;;;;;;;;;10.20;38.30;;;;;;4950544;28;75249;-67
2021/03/18 03:42:18;;;;;;;;;;;10.20;38.40;;;;;;4950339;28;75235;-66
2021/03/18 03:44:43;;;;;;;;;;;10.20;38.40;;;;;;4950155;28;74428;-66
2021/03/18 03:47:10;;;;;;;;;;;10.30;38.60;;;;;;4950389;28;74902;-66
2021/03/18 03:49:36;;;;;;;;;;;10.30;38.40;;;;;;4950347;28;75430;-66
2021/03/18 03:52:08;;;;;;;;;;;10.20;38.50;;;;;;4950540;28;74447;-66
2021/03/18 03:54:36;;;;;;;;;;;10.20;38.40;;;;;;4949697;28;74718;-67
2021/03/18 03:57:10;;;;;;;;;;;10.10;38.80;;;;;;4950194;28;75365;-66
2021/03/18 03:59:38;;;;;;;;;;;10.10;38.80;;;;;;4950119;28;74472;-66
2021/03/18 04:02:04;;;;;;;;;;;10.00;38.70;;;;;;4948589;28;76037;-65
2021/03/18 04:04:30;;;;;;;;;;;10.00;39.30;;;;;;4949755;28;74433;-66
2021/03/18 04:06:57;;;;;;;;;;;10.00;39.80;;;;;;4948498;28;75627;-66
2021/03/18 04:09:23;;;;;;;;;;;9.90;39.40;;;;;;4950175;28;74513;-66
2021/03/18 04:11:50;;;;;;;;;;;9.90;39.00;;;;;;4949823;28;74595;-66
2021/03/18 04:14:18;;;;;;;;;;;9.80;39.60;;;;;;4964966;28;76839;-66
2021/03/18 04:16:44;;;;;;;;;;;9.80;39.80;;;;;;4949846;28;74523;-67
2021/03/18 04:19:13;;;;;;;;;;;9.80;40.20;;;;;;4948531;28;78013;-67
2021/03/18 04:21:39;;;;;;;;;;;9.80;39.80;;;;;;4949745;28;75234;-66
2021/03/18 04:24:06;;;;;;;;;;;9.80;40.00;;;;;;4949582;28;75196;-66
2021/03/18 04:26:33;;;;;;;;;;;9.80;40.20;;;;;;4952602;28;75220;-67
2021/03/18 04:29:00;;;;;;;;;;;9.70;40.20;;;;;;4951222;28;77027;-66
2021/03/18 04:31:26;;;;;;;;;;;9.70;41.30;;;;;;4952655;28;74422;-66
2021/03/18 04:33:52;;;;;;;;;;;9.70;40.50;;;;;;4950926;28;78220;-66
2021/03/18 04:36:17;;;;;;;;;;;9.60;40.70;;;;;;4952633;28;75814;-66
2021/03/18 04:38:43;;;;;;;;;;;9.60;40.50;;;;;;4952719;28;74538;-66
2021/03/18 04:41:09;;;;;;;;;;;9.60;40.20;;;;;;4952783;28;74448;-66
2021/03/18 04:43:37;;;;;;;;;;;9.60;40.40;;;;;;4952180;28;75119;-67
2021/03/18 04:46:05;;;;;;;;;;;9.60;40.70;;;;;;4951160;28;76455;-67
2021/03/18 04:48:31;;;;;;;;;;;9.50;40.50;;;;;;4952900;28;74612;-68
2021/03/18 04:50:56;;;;;;;;;;;9.50;40.90;;;;;;4950766;28;76891;-66
2021/03/18 04:53:22;;;;;;;;;;;9.50;40.70;;;;;;4952456;28;75272;-66
2021/03/18 04:55:48;;;;;;;;;;;9.40;41.50;;;;;;4952357;28;74510;-67
2021/03/18 04:58:14;;;;;;;;;;;9.40;41.10;;;;;;4952446;28;75467;-66
2021/03/18 05:00:39;;;;;;;;;;;9.40;41.00;;;;;;4950475;28;77993;-65
2021/03/18 05:03:09;;;;;;;;;;;9.40;41.50;;;;;;4952349;28;75179;-66
2021/03/18 05:05:36;;;;;;;;;;;9.40;40.90;;;;;;4951433;28;75339;-64
2021/03/18 05:08:02;;;;;;;;;;;9.40;41.40;;;;;;4950586;28;78546;-66
2021/03/18 05:10:30;;;;;;;;;;;9.40;40.80;;;;;;4952005;28;76203;-67
2021/03/18 05:12:57;;;;;;;;;;;9.40;41.00;;;;;;4952330;28;75649;-67
2021/03/18 05:15:23;;;;;;;;;;;9.40;41.40;;;;;;4950673;28;77547;-65
2021/03/18 05:17:49;;;;;;;;;;;9.40;41.20;;;;;;4952400;28;75005;-66
2021/03/18 05:20:17;;;;;;;;;;;9.40;41.40;;;;;;4951861;28;76494;-66
2021/03/18 05:22:45;;;;;;;;;;;9.40;41.30;;;;;;4952212;28;75379;-66
2021/03/18 05:25:12;;;;;;;;;;;9.40;41.50;;;;;;4952275;28;75500;-67
2021/03/18 05:27:38;;;;;;;;;;;9.40;41.00;;;;;;4950776;28;76475;-66
2021/03/18 05:30:05;;;;;;;;;;;9.40;41.30;;;;;;4952253;28;75184;-66
2021/03/18 05:32:31;;;;;;;;;;;9.30;41.20;;;;;;4952179;28;75262;-66
2021/03/18 05:34:56;;;;;;;;;;;9.40;41.30;;;;;;4951965;28;76323;-67
2021/03/18 05:37:22;;;;;;;;;;;9.30;41.50;;;;;;4952057;28;75305;-65
2021/03/18 05:39:48;;;;;;;;;;;9.30;41.50;;;;;;4952061;28;75637;-66
2021/03/18 05:42:13;;;;;;;;;;;9.30;41.10;;;;;;4950805;28;77047;-67
2021/03/18 05:44:39;;;;;;;;;;;9.30;41.20;;;;;;4950387;28;78302;-66
2021/03/18 05:47:04;;;;;;;;;;;9.30;41.40;;;;;;4951821;28;75003;-66
2021/03/18 05:49:30;;;;;;;;;;;9.30;41.20;;;;;;4950444;28;77720;-66
2021/03/18 05:51:57;;;;;;;;;;;9.20;41.50;;;;;;4950182;28;78123;-66
2021/03/18 05:54:23;;;;;;;;;;;9.20;41.40;;;;;;4951140;28;76431;-65
2021/03/18 05:56:49;;;;;;;;;;;9.20;41.40;;;;;;4951350;28;76452;-65
2021/03/18 05:59:16;;;;;;;;;;;9.20;41.30;;;;;;4951660;28;75294;-67
2021/03/18 06:01:42;;;;;;;;;;;9.20;41.30;;;;;;4951830;28;75335;-67
2021/03/18 06:04:08;;;;;;;;;;;9.20;41.10;;;;;;4950358;28;75542;-66
2021/03/18 06:06:34;;;;;;;;;;;9.20;41.00;;;;;;4952179;28;74371;-65
2021/03/18 06:09:00;;;;;;;;;;;9.10;40.90;;;;;;4951588;28;74605;-66
2021/03/18 06:11:26;;;;;;;;;;;9.10;40.90;;;;;;4951238;28;74725;-65
2021/03/18 06:13:51;;;;;;;;;;;9.10;40.80;;;;;;4951259;28;76338;-65
2021/03/18 06:16:17;;;;;;;;;;;9.10;40.70;;;;;;4951301;28;75089;-62
2021/03/18 06:18:43;;;;;;;;;;;9.20;40.70;;;;;;4950185;28;77885;-63
2021/03/18 06:21:09;;;;;;;;;;;9.20;40.70;;;;;;4949858;28;78083;-63
2021/03/18 06:23:35;;;;;;;;;;;9.10;40.70;;;;;;4951588;28;75134;-62
2021/03/18 06:26:01;;;;;;;;;;;9.10;40.60;;;;;;4951451;28;75170;-62
2021/03/18 06:28:27;;;;;;;;;;;9.10;40.70;;;;;;4950708;28;76435;-61
2021/03/18 06:31:13;;;;;;;;;;;9.10;40.70;;;;;;4951525;28;76206;-62
2021/03/18 06:33:49;;;;;;;;;;;9.10;40.80;;;;;;4950583;28;76202;-62
2021/03/18 06:36:31;;;;;;;;;;;9.10;41.00;;;;;;4950016;28;77131;-62
2021/03/18 06:39:04;;;;;;;;;;;9.10;40.90;;;;;;4949544;28;76287;-62
2021/03/18 06:41:39;;;;;;;;;;;9.10;41.00;;;;;;4950147;28;76978;-61
2021/03/18 06:44:27;;;;;;;;;;;9.10;40.90;;;;;;4950996;28;75272;-64
2021/03/18 06:46:53;;;;;;;;;;;9.10;41.00;;;;;;4945230;28;75903;-61
2021/03/18 06:49:19;;;;;;;;;;;9.10;40.60;;;;;;4951322;28;74394;-61
2021/03/18 06:52:00;;;;;;;;;;;9.10;40.90;;;;;;4951464;28;74436;-62
2021/03/18 06:54:26;;;;;;;;;;;9.20;40.70;;;;;;4951067;28;77066;-67
2021/03/18 06:56:52;;;;;;;;;;;9.20;40.70;;;;;;4950886;28;75189;-62
2021/03/18 06:59:23;;;;;;;;;;;9.20;40.70;;;;;;4951295;28;75416;-62
2021/03/18 07:02:09;;;;;;;;;;;9.20;40.60;;;;;;4951262;28;74552;-62
2021/03/18 07:04:38;;;;;;;;;;;9.30;40.60;;;;;;4950500;28;75345;-61
2021/03/18 07:07:04;;;;;;;;;;;9.20;40.70;;;;;;4951377;28;74653;-61
2021/03/18 07:09:30;;;;;;;;;;;9.30;40.30;;;;;;4950893;28;75541;-61
2021/03/18 07:12:00;;;;;;;;;;;9.40;40.30;;;;;;4950266;28;76200;-62
2021/03/18 07:14:58;;;;;;;;;;;9.40;40.60;;;;;;4950589;28;75170;-67
2021/03/18 07:17:34;;;;;;;;;;;9.40;40.50;;;;;;4950139;28;75199;-62
2021/03/18 07:20:12;;;;;;;;;;;9.40;40.00;;;;;;4950659;28;75197;-62
2021/03/18 07:22:42;;;;;;;;;;;9.50;40.20;;;;;;4950757;28;75282;-64
2021/03/18 07:25:09;;;;;;;;;;;9.50;39.80;;;;;;4950682;28;75067;-69
2021/03/18 07:27:39;;;;;;;;;;;9.50;40.20;;;;;;4949092;28;77971;-61
2021/03/18 07:30:05;;;;;;;;;;;9.50;40.30;;;;;;4950476;28;75008;-65
2021/03/18 07:32:32;;;;;;;;;;;9.60;40.20;;;;;;4949686;28;78923;-64
2021/03/18 07:34:58;;;;;;;;;;;9.60;40.30;;;;;;4949108;28;77903;-67
2021/03/18 07:37:23;;;;;;;;;;;9.70;40.00;;;;;;4950664;28;74915;-74
2021/03/18 07:39:49;;;;;;;;;;;9.70;39.90;;;;;;4949256;28;77026;-64
2021/03/18 07:42:16;;;;;;;;;;;9.70;39.80;;;;;;4950014;28;75011;-63
2021/03/18 07:44:42;;;;;;;;;;;9.80;40.00;;;;;;4950338;28;75108;-62
2021/03/18 07:47:08;;;;;;;;;;;9.80;39.50;;;;;;4950281;28;75170;-63
2021/03/18 07:49:39;;;;;;;;;;;9.90;39.70;;;;;;4949936;28;75223;-65
2021/03/18 07:52:05;;;;;;;;;;;9.90;39.50;;;;;;4948676;28;76153;-62
2021/03/18 07:54:32;;;;;;;;;;;9.90;39.60;;;;;;4949728;28;75110;-66
2021/03/18 07:56:58;;;;;;;;;;;10.00;39.60;;;;;;4950014;28;75246;-63
2021/03/18 07:59:31;;;;;;;;;;;10.10;39.00;;;;;;4950004;28;76496;-62
2021/03/18 08:02:22;;;;;;;;;;;10.10;39.20;;;;;;4952610;28;76443;-62
2021/03/18 08:04:52;;;;;;;;;;;10.20;39.20;;;;;;4952052;28;76131;-62
2021/03/18 08:07:37;;;;;;;;;;;10.30;38.30;;;;;;4951518;28;78481;-62
2021/03/18 08:10:08;;;;;;;;;;;10.30;38.50;;;;;;4953012;28;75248;-64
2021/03/18 08:12:47;;;;;;;;;;;10.40;38.50;;;;;;4952869;28;75359;-62
2021/03/18 08:15:22;;;;;;;;;;;10.40;38.30;;;;;;4951762;28;75660;-62
2021/03/18 08:17:47;;;;;;;;;;;10.40;38.00;;;;;;4952759;28;75256;-67
2021/03/18 08:20:33;;;;;;;;;;;10.50;37.90;;;;;;4952885;28;75125;-63
2021/03/18 08:22:59;;;;;;;;;;;10.60;37.60;;;;;;4952061;28;75394;-63
2021/03/18 08:25:24;;;;;;;;;;;10.70;37.50;;;;;;4952901;28;75305;-63
2021/03/18 08:27:50;;;;;;;;;;;10.80;37.50;;;;;;4951887;28;77110;-66
2021/03/18 08:30:19;;;;;;;;;;;10.80;36.80;;;;;;4953326;28;76153;-63
2021/03/18 08:32:45;;;;;;;;;;;10.80;37.10;;;;;;4951128;28;75374;-64
2021/03/18 08:35:24;;;;;;;;;;;10.90;37.00;;;;;;4950987;28;77676;-62
2021/03/18 08:37:49;;;;;;;;;;;10.90;36.90;;;;;;4952995;28;75140;-66
2021/03/18 08:40:22;;;;;;;;;;;10.90;36.80;;;;;;4967764;28;75709;-62
2021/03/18 08:42:48;;;;;;;;;;;11.00;36.70;;;;;;4952644;28;75456;-62
2021/03/18 08:45:19;;;;;;;;;;;11.00;36.40;;;;;;4950841;28;75193;-62
2021/03/18 08:47:51;;;;;;;;;;;11.10;36.60;;;;;;4952716;28;75124;-62
2021/03/18 08:50:26;;;;;;;;;;;11.20;36.60;;;;;;4952665;28;76960;-62
2021/03/18 08:52:52;;;;;;;;;;;11.30;36.30;;;;;;4952658;28;74651;-62
2021/03/18 08:55:37;;;;;;;;;;;11.40;36.20;;;;;;4952239;28;75117;-61
2021/03/18 08:58:03;;;;;;;;;;;11.40;36.00;;;;;;4952326;28;75044;-62
2021/03/18 09:00:29;;;;;;;;;;;11.50;35.90;;;;;;4952442;28;75235;-62
2021/03/18 09:02:54;;;;;;;;;;;11.50;36.10;;;;;;4952709;28;74668;-69
2021/03/18 09:05:21;;;;;;;;;;;11.60;36.00;;;;;;4952552;28;75322;-65
2021/03/18 09:07:51;;;;;;;;;;;11.70;36.10;;;;;;4950543;28;76666;-63
2021/03/18 09:10:18;;;;;;;;;;;11.80;35.70;;;;;;4951863;28;77298;-69
2021/03/18 09:12:43;;;;;;;;;;;11.90;35.90;;;;;;4952368;28;75340;-62
2021/03/18 09:15:13;;;;;;;;;;;12.00;35.40;;;;;;4952271;28;74571;-62
2021/03/18 09:17:39;;;;;;;;;;;12.10;35.10;;;;;;4950633;28;74715;-65
2021/03/18 09:20:05;;;;;;;;;;;12.20;35.10;;;;;;4952378;28;74411;-61
2021/03/18 09:22:30;;;;;;;;;;;12.40;34.50;;;;;;4950842;28;76985;-65
2021/03/18 09:24:59;;;;;;;;;;;12.50;34.60;;;;;;4951126;28;77224;-68
2021/03/18 09:27:32;;;;;;;;;;;12.60;34.10;;;;;;4951357;28;74700;-63
2021/03/18 09:30:12;;;;;;;;;;;12.70;34.60;;;;;;4952080;28;75277;-64
2021/03/18 09:32:37;;;;;;;;;;;12.90;34.10;;;;;;4952600;28;74472;-62
2021/03/18 09:35:03;;;;;;;;;;;13.10;34.30;;;;;;4952103;28;75260;-62
2021/03/18 09:37:33;;;;;;;;;;;13.40;33.90;;;;;;4950244;28;76902;-64
2021/03/18 09:39:59;;;;;;;;;;;13.50;33.70;;;;;;4950448;28;77146;-62
2021/03/18 09:42:24;;;;;;;;;;;13.70;33.60;;;;;;4951880;28;75206;-63
2021/03/18 09:44:50;;;;;;;;;;;13.90;33.60;;;;;;4966619;28;75511;-68
2021/03/18 09:47:15;;;;;;;;;;;14.20;33.30;;;;;;4951917;28;75150;-64
2021/03/18 09:49:42;;;;;;;;;;;14.40;33.20;;;;;;4951783;28;75145;-63
2021/03/18 09:52:10;;;;;;;;;;;14.60;32.70;;;;;;4952732;28;74938;-64
2021/03/18 09:54:36;;;;;;;;;;;14.90;32.60;;;;;;4951920;28;75338;-66
2021/03/18 09:57:05;;;;;;;;;;;15.10;32.40;;;;;;4950243;28;77532;-65
2021/03/18 09:59:31;;;;;;;;;;;15.30;32.10;;;;;;4951772;28;75162;-64
2021/03/18 10:01:57;;;;;;;;;;;15.40;31.90;;;;;;4950288;28;76347;-62
2021/03/18 10:04:23;;;;;;;;;;;15.70;31.20;;;;;;4951872;28;74445;-67
2021/03/18 10:06:52;;;;;;;;;;;15.80;30.80;;;;;;4951922;28;74539;-62
2021/03/18 10:09:27;;;;;;;;;;;15.70;30.80;;;;;;4952362;28;75610;-62
2021/03/18 10:11:53;;;;;;;;;;;15.80;31.50;;;;;;4951151;28;75293;-63
2021/03/18 10:14:19;;;;;;;;;;;16.00;31.20;;;;;;4951896;28;75071;-64
2021/03/18 10:16:46;;;;;;;;;;;16.40;30.50;;;;;;4949575;28;76974;-62
2021/03/18 10:19:12;;;;;;;;;;;16.60;30.40;;;;;;4950000;28;77528;-63
2021/03/18 10:21:38;;;;;;;;;;;16.80;30.20;;;;;;4951597;28;74465;-62
2021/03/18 10:24:04;;;;;;;;;;;17.20;29.90;;;;;;4950805;28;75203;-62
2021/03/18 10:26:30;;;;;;;;;;;17.70;29.70;;;;;;4951253;28;75123;-62
2021/03/18 10:29:03;;;;;;;;;;;18.30;29.50;;;;;;4951573;28;74437;-65
2021/03/18 10:31:28;;;;;;;;;;;18.90;28.60;;;;;;4951010;28;75395;-62
2021/03/18 10:33:54;;;;;;;;;;;19.00;27.80;;;;;;4949509;28;75198;-62
2021/03/18 10:36:33;;;;;;;;;;;18.30;28.10;;;;;;4951073;28;75640;-65
2021/03/18 10:38:59;;;;;;;;;;;17.70;28.80;;;;;;4951313;28;75197;-62
2021/03/18 10:41:25;;;;;;;;;;;17.30;29.60;;;;;;4949150;28;77796;-62
2021/03/18 10:43:51;;;;;;;;;;;17.60;29.40;;;;;;4949547;28;76701;-64
2021/03/18 10:46:17;;;;;;;;;;;17.90;29.20;;;;;;4949461;28;77059;-65
2021/03/18 10:48:49;;;;;;;;;;;18.40;28.50;;;;;;4951008;28;74961;-61
2021/03/18 10:51:16;;;;;;;;;;;19.10;27.70;;;;;;4951599;28;74510;-62
2021/03/18 10:53:42;;;;;;;;;;;19.50;26.80;;;;;;4951300;28;75269;-66
2021/03/18 10:56:16;;;;;;;;;;;19.50;26.80;;;;;;4950978;28;75301;-65
2021/03/18 10:58:42;;;;;;;;;;;19.60;26.80;;;;;;4951566;28;74932;-66
2021/03/18 11:01:08;;;;;;;;;;;20.10;26.60;;;;;;4952067;28;74471;-63
2021/03/18 11:03:35;;;;;;;;;;;20.30;26.30;;;;;;4951013;28;74466;-68
2021/03/18 11:06:00;;;;;;;;;;;20.20;26.30;;;;;;4951595;28;74424;-72
2021/03/18 11:08:33;;;;;;;;;;;20.10;26.40;;;;;;4949919;28;77545;-70
2021/03/18 11:10:59;;;;;;;;;;;19.80;26.50;;;;;;4950644;28;74847;-73
2021/03/18 11:13:26;;;;;;;;;;;19.40;27.20;;;;;;4951602;28;75068;-75
2021/03/18 11:15:53;;;;;;;;;;;18.90;27.00;;;;;;4949684;28;75475;-67
2021/03/18 11:18:25;;;;;;;;;;;18.60;27.60;;;;;;4950560;28;76947;-68
2021/03/18 11:20:51;;;;;;;;;;;18.40;28.30;;;;;;4949693;28;77381;-77
2021/03/18 11:23:23;;;;;;;;;;;18.20;28.60;;;;;;4949764;28;78467;-67
2021/03/18 11:25:54;;;;;;;;;;;18.10;28.20;;;;;;4949896;28;78025;-65
2021/03/18 11:28:19;;;;;;;;;;;17.80;28.50;;;;;;4950806;28;75124;-65
2021/03/18 11:30:45;;;;;;;;;;;19.00;27.70;;;;;;4949805;28;78508;-62
2021/03/18 11:33:12;;;;;;;;;;;21.30;25.90;;;;;;4950301;28;74415;-61
2021/03/18 11:35:38;;;;;;;;;;;23.50;23.50;;;;;;4950253;28;76872;-62
2021/03/18 11:38:04;;;;;;;;;;;25.70;21.80;;;;;;4950825;28;75342;-63
2021/03/18 11:40:30;;;;;;;;;;;27.70;20.40;;;;;;4949199;28;77151;-61
2021/03/18 11:42:55;;;;;;;;;;;28.10;19.20;;;;;;4950143;28;75350;-61
2021/03/18 11:45:21;;;;;;;;;;;25.40;20.70;;;;;;4950167;28;76138;-63
2021/03/18 11:47:47;;;;;;;;;;;23.20;22.50;;;;;;4950504;28;75718;-62
2021/03/18 11:50:13;;;;;;;;;;;21.50;23.90;;;;;;4949877;28;75160;-61
2021/03/18 11:52:38;;;;;;;;;;;20.10;25.50;;;;;;4950295;28;75640;-61
2021/03/18 11:55:04;;;;;;;;;;;19.10;26.20;;;;;;4949652;28;75160;-65
2021/03/18 11:57:30;;;;;;;;;;;18.50;27.30;;;;;;4950096;28;76404;-63
2021/03/18 11:59:55;;;;;;;;;;;18.20;26.90;;;;;;4950538;28;75417;-62
2021/03/18 12:02:21;;;;;;;;;;;18.40;27.50;;;;;;4948629;28;77958;-62
2021/03/18 12:04:47;;;;;;;;;;;21.90;24.80;;;;;;4948721;28;77372;-61
2021/03/18 12:07:13;;;;;;;;;;;25.00;21.80;;;;;;4948198;28;75422;-69
2021/03/18 12:09:38;;;;;;;;;;;27.10;20.00;;;;;;4949916;28;75066;-62
2021/03/18 12:12:05;;;;;;;;;;;27.70;19.80;;;;;;4949814;28;74957;-61
2021/03/18 12:14:30;;;;;;;;;;;30.20;17.80;;;;;;4949979;28;75666;-62
2021/03/18 12:16:56;;;;;;;;;;;32.50;16.70;;;;;;4950072;28;75101;-63
2021/03/18 12:19:22;;;;;;;;;;;34.20;15.60;;;;;;4949834;28;75742;-62
2021/03/18 12:21:47;;;;;;;;;;;35.30;15.20;;;;;;4950086;28;74420;-66
2021/03/18 12:24:13;;;;;;;;;;;35.90;14.20;;;;;;4948098;28;78111;-62
2021/03/18 12:26:39;;;;;;;;;;;34.30;14.80;;;;;;4950385;28;74363;-63
2021/03/18 12:29:05;;;;;;;;;;;32.40;16.00;;;;;;4949348;28;76704;-62
2021/03/18 12:31:31;;;;;;;;;;;31.00;16.70;;;;;;4949953;28;74814;-61
2021/03/18 12:33:56;;;;;;;;;;;30.50;17.50;;;;;;4949845;28;74910;-61
2021/03/18 12:36:22;;;;;;;;;;;31.70;16.60;;;;;;4947893;28;77695;-62
2021/03/18 12:38:48;;;;;;;;;;;32.70;16.50;;;;;;4948023;28;78286;-62
2021/03/18 12:41:13;;;;;;;;;;;32.40;16.20;;;;;;4947803;28;75589;-63
2021/03/18 12:43:39;;;;;;;;;;;32.20;16.30;;;;;;4949968;28;74387;-62
2021/03/18 12:46:05;;;;;;;;;;;31.90;16.20;;;;;;4950989;28;74937;-63
2021/03/18 12:48:30;;;;;;;;;;;32.00;16.50;;;;;;4952458;28;75211;-62
2021/03/18 12:50:56;;;;;;;;;;;31.40;15.60;;;;;;4952673;28;75086;-62
2021/03/18 12:53:21;;;;;;;;;;;30.70;17.10;;;;;;4952450;28;75209;-63
2021/03/18 12:55:48;;;;;;;;;;;29.80;16.30;;;;;;4952225;28;75059;-63
2021/03/18 12:58:14;;;;;;;;;;;29.30;17.40;;;;;;4953018;28;74636;-64
2021/03/18 13:00:40;;;;;;;;;;;29.40;16.90;;;;;;4952432;28;75136;-61
2021/03/18 13:03:05;;;;;;;;;;;29.90;16.90;;;;;;4950698;28;75501;-62
2021/03/18 13:05:31;;;;;;;;;;;31.00;16.50;;;;;;4950512;28;75369;-62
2021/03/18 13:07:57;;;;;;;;;;;28.90;17.30;;;;;;4952447;28;75348;-62
2021/03/18 13:10:22;;;;;;;;;;;26.50;18.40;;;;;;4952024;28;75184;-61
2021/03/18 13:12:48;;;;;;;;;;;24.60;20.20;;;;;;4952301;28;74464;-63
2021/03/18 13:15:15;;;;;;;;;;;23.30;20.70;;;;;;4952047;28;75018;-63
2021/03/18 13:17:41;;;;;;;;;;;22.70;21.20;;;;;;4950452;28;78043;-61
2021/03/18 13:20:09;;;;;;;;;;;22.30;21.90;;;;;;4952250;28;75106;-62
2021/03/18 13:22:34;;;;;;;;;;;21.40;21.80;;;;;;4951802;28;76359;-61
2021/03/18 13:25:00;;;;;;;;;;;20.50;22.90;;;;;;4950336;28;77566;-63
2021/03/18 13:27:26;;;;;;;;;;;20.00;23.70;;;;;;4952177;28;75253;-61
2021/03/18 13:29:51;;;;;;;;;;;19.90;24.20;;;;;;4952270;28;74718;-63
2021/03/18 13:32:17;;;;;;;;;;;19.90;23.90;;;;;;4949966;28;77413;-62
2021/03/18 13:34:43;;;;;;;;;;;19.70;23.90;;;;;;4951863;28;75190;-66
2021/03/18 13:37:08;;;;;;;;;;;19.50;23.90;;;;;;4951918;28;75312;-64
2021/03/18 13:39:34;;;;;;;;;;;19.40;24.10;;;;;;4951880;28;75300;-62
2021/03/18 13:41:59;;;;;;;;;;;19.30;24.20;;;;;;4967869;27;76545;-65
2021/03/18 13:44:25;;;;;;;;;;;19.40;24.40;;;;;;4951790;28;76026;-61
2021/03/18 13:46:50;;;;;;;;;;;20.60;23.50;;;;;;4950417;28;77100;-61
2021/03/18 13:49:16;;;;;;;;;;;21.90;22.70;;;;;;4951852;28;75096;-63
2021/03/18 13:51:42;;;;;;;;;;;22.90;21.40;;;;;;4951479;28;75373;-69
2021/03/18 13:54:09;;;;;;;;;;;24.10;21.20;;;;;;4951963;28;74990;-62
2021/03/18 13:56:35;;;;;;;;;;;25.50;20.20;;;;;;4951136;28;75474;-62
2021/03/18 13:59:00;;;;;;;;;;;26.90;19.10;;;;;;4951406;28;75174;-63
2021/03/18 14:01:26;;;;;;;;;;;28.30;18.40;;;;;;4951608;28;76245;-63
2021/03/18 14:03:52;;;;;;;;;;;28.50;17.50;;;;;;4951272;28;75663;-62
2021/03/18 14:06:17;;;;;;;;;;;27.20;18.80;;;;;;4951419;28;75881;-64
2021/03/18 14:08:43;;;;;;;;;;;25.90;19.20;;;;;;4950379;28;75178;-63
2021/03/18 14:11:08;;;;;;;;;;;24.30;19.80;;;;;;4951516;28;75220;-63
2021/03/18 14:13:34;;;;;;;;;;;23.00;21.30;;;;;;4951236;28;74641;-61
2021/03/18 14:16:00;;;;;;;;;;;22.00;21.70;;;;;;4951451;28;75098;-62
2021/03/18 14:18:28;;;;;;;;;;;21.40;22.30;;;;;;4950110;28;76458;-69
2021/03/18 14:20:54;;;;;;;;;;;20.90;22.70;;;;;;4951846;28;75038;-62
2021/03/18 14:23:20;;;;;;;;;;;20.50;23.50;;;;;;4952236;28;74704;-67